This is the latest recevied weather packets stored in our database for station/object K1RFS. If no packets are shown the sender has not sent any weather packets the latest 10 day(s).
| Time | Temp. | Humidity | Pressure | Rain* | Wind** | Luminosity | Snow |
|---|---|---|---|---|---|---|---|
| 1787657628 | 18.89° C | 57% | 1009.3 hPa | 0 mm | - | 0 W/m² | - |
| 1787657323 | 18.89° C | 58% | 1009.2 hPa | 0 mm | - | 0 W/m² | - |
| 1787657019 | 18.33° C | 60% | 1009.2 hPa | 0 mm | - | 0 W/m² | - |
| 1787656716 | 18.33° C | 61% | 1009.4 hPa | 0 mm | - | 0 W/m² | - |
| 1787656411 | 18.89° C | 60% | 1009.4 hPa | 0 mm | - | 0 W/m² | - |
| 1787656105 | 18.89° C | 59% | 1009.4 hPa | 0 mm | - | 0 W/m² | - |
| 1787655803 | 18.89° C | 58% | 1009.5 hPa | 0 mm | - | 0 W/m² | - |
| 1787655501 | 19.44° C | 57% | 1009.3 hPa | 0 mm | - | 0 W/m² | - |
| 1787655200 | 20° C | 54% | 1009.4 hPa | 0 mm | - | 0 W/m² | - |
| 1787654896 | 20° C | 53% | 1009.3 hPa | 0 mm | - | 0 W/m² | - |
| 1787654592 | 20.56° C | 51% | 1009.4 hPa | 0 mm | - | 0 W/m² | - |
| 1787654287 | 20.56° C | 50% | 1009.4 hPa | 0 mm | - | 0 W/m² | - |
| 1787653982 | 21.11° C | 49% | 1009.4 hPa | 0 mm | - | 0 W/m² | - |
| 1787653677 | 21.11° C | 49% | 1009.5 hPa | 0 mm | - | 0 W/m² | - |
| 1787653372 | 21.67° C | 48% | 1009.4 hPa | 0 mm | - | 0 W/m² | - |
| 1787653068 | 21.11° C | 49% | 1009.3 hPa | 0 mm | - | 0 W/m² | - |
| 1787652762 | 21.11° C | 50% | 1009.4 hPa | 0 mm | - | 0 W/m² | - |
| 1787652457 | 21.11° C | 50% | 1009.4 hPa | 0 mm | - | 0 W/m² | - |
| 1787652152 | 20.56° C | 51% | 1009.2 hPa | 0 mm | - | 0 W/m² | - |
| 1787651852 | 20.56° C | 52% | 1009 hPa | 0 mm | - | 0 W/m² | - |
| 1787651546 | 20.56° C | 53% | 1008.8 hPa | 0 mm | - | 0 W/m² | - |
| 1787651245 | 20° C | 52% | 1008.8 hPa | 0 mm | - | 0 W/m² | - |
| 1787650942 | 20° C | 54% | 1008.7 hPa | 0 mm | - | 0 W/m² | - |
| 1787650637 | 20° C | 54% | 1008.7 hPa | 0 mm | - | 0 W/m² | - |
| 1787650333 | 20° C | 52% | 1008.5 hPa | 0 mm | - | 0 W/m² | - |
* Rain latest hour (hover to see other rain measurements)
** Current wind speed in m/s (hover to see current wind gust speed)